Time;durP1;ratioP1;P1;durP2;ratioP2;P2;SDS_P1;SDS_P2;PMS_P1;PMS_P2;Temp;Humidity;BMP_temperature;BMP_pressure;BME280_temperature;BME280_humidity;BME280_pressure;Samples;Min_cycle;Max_cycle;Signal;HPM_P1;HPM_P2
2023/01/18 00:00:01;;;;;;;4.1;4.0;;;;;;;-1.6;100.0;98910;;;;
2023/01/18 00:01:02;;;;;;;4.1;4.0;;;;;;;-1.6;100.0;98910;;;;
2023/01/18 00:02:00;;;;;;;4.1;4.0;;;;;;;-1.7;100.0;98910;;;;
2023/01/18 00:03:00;;;;;;;4.1;4.0;;;;;;;-1.7;100.0;98910;;;;
2023/01/18 00:04:00;;;;;;;4.1;4.0;;;;;;;-1.7;100.0;98910;;;;
2023/01/18 00:05:00;;;;;;;4.1;4.0;;;;;;;-1.7;100.0;98910;;;;
2023/01/18 00:06:01;;;;;;;4.1;4.0;;;;;;;-1.7;100.0;98910;;;;
2023/01/18 00:07:00;;;;;;;4.1;4.0;;;;;;;-1.7;100.0;98910;;;;
2023/01/18 00:08:00;;;;;;;4.1;4.0;;;;;;;-1.7;100.0;98910;;;;
2023/01/18 00:09:00;;;;;;;4.4;4.3;;;;;;;-1.7;100.0;98910;;;;
2023/01/18 00:10:00;;;;;;;4.4;4.3;;;;;;;-1.8;100.0;98920;;;;
2023/01/18 00:11:04;;;;;;;4.4;4.3;;;;;;;-1.8;100.0;98910;;;;
2023/01/18 00:12:00;;;;;;;4.4;4.3;;;;;;;-1.8;100.0;98910;;;;
2023/01/18 00:13:00;;;;;;;4.4;4.3;;;;;;;-1.8;100.0;98910;;;;
2023/01/18 00:14:01;;;;;;;4.4;4.3;;;;;;;-1.7;100.0;98910;;;;
2023/01/18 00:15:00;;;;;;;4.4;4.3;;;;;;;-1.7;100.0;98910;;;;
2023/01/18 00:16:01;;;;;;;4.4;4.3;;;;;;;-1.7;100.0;98910;;;;
2023/01/18 00:17:00;;;;;;;4.4;4.3;;;;;;;-1.7;100.0;98910;;;;
2023/01/18 00:18:00;;;;;;;4.4;4.3;;;;;;;-1.7;100.0;98910;;;;
2023/01/18 00:19:00;;;;;;;4.4;4.3;;;;;;;-1.7;100.0;98910;;;;
2023/01/18 00:20:00;;;;;;;4.4;4.3;;;;;;;-1.6;100.0;98910;;;;
2023/01/18 00:21:01;;;;;;;4.4;4.3;;;;;;;-1.6;100.0;98910;;;;
2023/01/18 00:22:00;;;;;;;4.4;4.3;;;;;;;-1.7;100.0;98910;;;;
2023/01/18 00:23:00;;;;;;;4.4;4.3;;;;;;;-1.7;100.0;98910;;;;
2023/01/18 00:24:00;;;;;;;4.4;4.3;;;;;;;-1.8;100.0;98910;;;;
2023/01/18 00:25:00;;;;;;;4.4;4.3;;;;;;;-1.8;100.0;98910;;;;
2023/01/18 00:26:01;;;;;;;4.4;4.3;;;;;;;-1.7;100.0;98910;;;;
2023/01/18 00:27:00;;;;;;;4.4;4.3;;;;;;;-1.7;100.0;98910;;;;
2023/01/18 00:28:00;;;;;;;4.4;4.3;;;;;;;-1.7;100.0;98910;;;;
2023/01/18 00:29:00;;;;;;;4.2;4.1;;;;;;;-1.7;100.0;98910;;;;
2023/01/18 00:30:00;;;;;;;4.2;4.1;;;;;;;-1.7;100.0;98910;;;;
2023/01/18 00:31:00;;;;;;;4.2;4.1;;;;;;;-1.7;100.0;98910;;;;
2023/01/18 00:32:00;;;;;;;4.2;4.1;;;;;;;-1.8;100.0;98910;;;;
2023/01/18 00:33:01;;;;;;;4.2;4.1;;;;;;;-1.8;100.0;98910;;;;
2023/01/18 00:34:00;;;;;;;4.2;4.1;;;;;;;-1.7;100.0;98910;;;;
2023/01/18 00:35:03;;;;;;;4.2;4.1;;;;;;;-1.7;100.0;98910;;;;
2023/01/18 00:36:01;;;;;;;4.2;4.1;;;;;;;-1.7;100.0;98920;;;;
2023/01/18 00:37:00;;;;;;;4.2;4.1;;;;;;;-1.7;100.0;98920;;;;
2023/01/18 00:38:00;;;;;;;4.2;4.1;;;;;;;-1.7;100.0;98920;;;;
2023/01/18 00:39:00;;;;;;;4.2;4.1;;;;;;;-1.7;100.0;98920;;;;
2023/01/18 00:40:00;;;;;;;4.2;4.1;;;;;;;-1.7;100.0;98920;;;;
2023/01/18 00:41:00;;;;;;;4.2;4.1;;;;;;;-1.7;100.0;98920;;;;
2023/01/18 00:44:00;;;;;;;4.2;4.1;;;;;;;-1.7;100.0;98920;;;;
2023/01/18 00:45:00;;;;;;;4.2;4.1;;;;;;;-1.7;100.0;98920;;;;
2023/01/18 00:46:00;;;;;;;4.2;4.1;;;;;;;-1.7;100.0;98910;;;;
2023/01/18 00:47:00;;;;;;;4.2;4.1;;;;;;;-1.7;100.0;98910;;;;
2023/01/18 00:48:01;;;;;;;4.2;4.1;;;;;;;-1.7;100.0;98910;;;;
2023/01/18 00:49:00;;;;;;;5.1;4.9;;;;;;;-1.7;100.0;98910;;;;
2023/01/18 00:50:00;;;;;;;5.1;4.9;;;;;;;-1.7;100.0;98920;;;;
2023/01/18 00:51:00;;;;;;;5.1;4.9;;;;;;;-1.7;100.0;98920;;;;
2023/01/18 00:52:00;;;;;;;5.1;4.9;;;;;;;-1.7;100.0;98910;;;;
2023/01/18 00:53:00;;;;;;;5.1;4.9;;;;;;;-1.7;100.0;98910;;;;
2023/01/18 00:54:00;;;;;;;5.1;4.9;;;;;;;-1.7;100.0;98910;;;;
2023/01/18 00:55:01;;;;;;;5.1;4.9;;;;;;;-1.7;100.0;98910;;;;
2023/01/18 00:56:00;;;;;;;5.1;4.9;;;;;;;-1.8;100.0;98920;;;;
2023/01/18 00:57:00;;;;;;;5.1;4.9;;;;;;;-1.8;100.0;98920;;;;
2023/01/18 00:58:00;;;;;;;5.1;4.9;;;;;;;-1.8;100.0;98920;;;;
2023/01/18 00:59:00;;;;;;;5.1;4.9;;;;;;;-1.8;100.0;98920;;;;
2023/01/18 01:00:01;;;;;;;5.1;4.9;;;;;;;-1.7;100.0;98920;;;;
2023/01/18 01:01:00;;;;;;;5.1;4.9;;;;;;;-1.7;100.0;98920;;;;
2023/01/18 01:02:01;;;;;;;5.1;4.9;;;;;;;-1.7;100.0;98920;;;;
2023/01/18 01:03:01;;;;;;;5.1;4.9;;;;;;;-1.7;100.0;98920;;;;
2023/01/18 01:07:00;;;;;;;5.1;4.9;;;;;;;-1.8;100.0;98920;;;;
2023/01/18 01:08:00;;;;;;;5.1;4.9;;;;;;;-1.8;100.0;98930;;;;
2023/01/18 01:09:00;;;;;;;4.2;4.1;;;;;;;-1.8;100.0;98930;;;;
2023/01/18 01:10:07;;;;;;;4.2;4.1;;;;;;;-1.8;100.0;98930;;;;
2023/01/18 01:11:05;;;;;;;4.2;4.1;;;;;;;-1.8;100.0;98930;;;;
2023/01/18 01:26:03;;;;;;;4.2;4.1;;;;;;;-1.8;100.0;98930;;;;
2023/01/18 01:27:00;;;;;;;4.2;4.1;;;;;;;-1.8;100.0;98930;;;;
2023/01/18 01:28:00;;;;;;;4.2;4.1;;;;;;;-1.9;100.0;98930;;;;
2023/01/18 01:29:00;;;;;;;3.9;3.8;;;;;;;-1.9;100.0;98930;;;;
2023/01/18 01:30:02;;;;;;;3.9;3.8;;;;;;;-1.8;100.0;98940;;;;
2023/01/18 01:31:01;;;;;;;3.9;3.8;;;;;;;-1.8;100.0;98940;;;;
2023/01/18 01:32:01;;;;;;;3.9;3.8;;;;;;;-1.8;100.0;98940;;;;
2023/01/18 01:33:00;;;;;;;3.9;3.8;;;;;;;-1.8;100.0;98940;;;;
2023/01/18 01:34:00;;;;;;;3.9;3.8;;;;;;;-1.9;100.0;98940;;;;
2023/01/18 01:35:00;;;;;;;3.9;3.8;;;;;;;-1.9;100.0;98940;;;;
2023/01/18 01:36:02;;;;;;;3.9;3.8;;;;;;;-1.9;100.0;98940;;;;
2023/01/18 01:37:00;;;;;;;3.9;3.8;;;;;;;-1.9;100.0;98940;;;;
2023/01/18 01:38:00;;;;;;;3.9;3.8;;;;;;;-2.0;100.0;98950;;;;
2023/01/18 01:39:00;;;;;;;3.9;3.8;;;;;;;-2.0;100.0;98950;;;;
2023/01/18 01:40:00;;;;;;;3.9;3.8;;;;;;;-1.9;100.0;98940;;;;
2023/01/18 01:41:03;;;;;;;3.9;3.8;;;;;;;-1.9;100.0;98940;;;;
2023/01/18 01:42:00;;;;;;;3.9;3.8;;;;;;;-1.9;100.0;98950;;;;
2023/01/18 01:43:00;;;;;;;3.9;3.8;;;;;;;-1.9;100.0;98950;;;;
2023/01/18 01:44:03;;;;;;;3.9;3.8;;;;;;;-1.9;100.0;98950;;;;
2023/01/18 01:45:00;;;;;;;3.9;3.8;;;;;;;-1.9;100.0;98950;;;;
2023/01/18 01:46:01;;;;;;;3.9;3.8;;;;;;;-1.9;100.0;98950;;;;
2023/01/18 01:47:05;;;;;;;3.9;3.8;;;;;;;-1.9;100.0;98960;;;;
2023/01/18 01:48:00;;;;;;;3.9;3.8;;;;;;;-1.9;100.0;98960;;;;
2023/01/18 01:49:03;;;;;;;4.1;4.0;;;;;;;-1.9;100.0;98960;;;;
2023/01/18 01:50:03;;;;;;;4.1;4.0;;;;;;;-1.9;100.0;98960;;;;
2023/01/18 01:51:01;;;;;;;4.1;4.0;;;;;;;-1.9;100.0;98960;;;;
2023/01/18 01:52:02;;;;;;;4.1;4.0;;;;;;;-2.0;100.0;98960;;;;
2023/01/18 01:53:00;;;;;;;4.1;4.0;;;;;;;-2.0;100.0;98960;;;;
2023/01/18 01:54:01;;;;;;;4.1;4.0;;;;;;;-2.0;100.0;98960;;;;
2023/01/18 01:55:06;;;;;;;4.1;4.0;;;;;;;-2.0;100.0;98960;;;;
2023/01/18 01:56:00;;;;;;;4.1;4.0;;;;;;;-2.0;100.0;98960;;;;
2023/01/18 01:57:04;;;;;;;4.1;4.0;;;;;;;-2.0;100.0;98960;;;;
2023/01/18 01:58:01;;;;;;;4.1;4.0;;;;;;;-2.0;100.0;98960;;;;
2023/01/18 01:59:01;;;;;;;4.1;4.0;;;;;;;-2.0;100.0;98960;;;;
2023/01/18 02:00:10;;;;;;;4.1;4.0;;;;;;;-2.0;100.0;98960;;;;
2023/01/18 02:01:01;;;;;;;4.1;4.0;;;;;;;-2.0;100.0;98960;;;;
2023/01/18 02:02:02;;;;;;;4.1;4.0;;;;;;;-2.0;100.0;98960;;;;
2023/01/18 02:03:02;;;;;;;4.1;4.0;;;;;;;-2.0;100.0;98960;;;;
2023/01/18 02:04:01;;;;;;;4.1;4.0;;;;;;;-2.0;100.0;98960;;;;
2023/01/18 02:05:02;;;;;;;4.1;4.0;;;;;;;-2.0;100.0;98960;;;;
2023/01/18 02:06:07;;;;;;;4.1;4.0;;;;;;;-2.1;100.0;98960;;;;
2023/01/18 02:07:00;;;;;;;4.1;4.0;;;;;;;-2.1;100.0;98960;;;;
2023/01/18 02:08:02;;;;;;;4.1;4.0;;;;;;;-2.1;100.0;98960;;;;
2023/01/18 02:09:01;;;;;;;4.5;4.4;;;;;;;-2.1;100.0;98960;;;;
2023/01/18 02:10:01;;;;;;;4.5;4.4;;;;;;;-2.0;100.0;98960;;;;
2023/01/18 02:11:00;;;;;;;4.5;4.4;;;;;;;-2.0;100.0;98960;;;;
2023/01/18 02:12:01;;;;;;;4.5;4.4;;;;;;;-2.1;100.0;98960;;;;
2023/01/18 02:13:00;;;;;;;4.5;4.4;;;;;;;-2.1;100.0;98960;;;;
2023/01/18 02:14:03;;;;;;;4.5;4.4;;;;;;;-2.1;100.0;98960;;;;
2023/01/18 02:15:01;;;;;;;4.5;4.4;;;;;;;-2.1;100.0;98960;;;;
2023/01/18 02:16:00;;;;;;;4.5;4.4;;;;;;;-2.1;100.0;98960;;;;
2023/01/18 02:17:08;;;;;;;4.5;4.4;;;;;;;-2.2;100.0;98950;;;;
2023/01/18 02:18:07;;;;;;;4.5;4.4;;;;;;;-2.2;100.0;98950;;;;
2023/01/18 02:19:00;;;;;;;4.5;4.4;;;;;;;-2.2;100.0;98950;;;;
2023/01/18 02:20:07;;;;;;;4.5;4.4;;;;;;;-2.2;100.0;98960;;;;
2023/01/18 02:21:03;;;;;;;4.5;4.4;;;;;;;-2.2;100.0;98960;;;;
2023/01/18 02:22:08;;;;;;;4.5;4.4;;;;;;;-2.2;100.0;98960;;;;
2023/01/18 02:23:10;;;;;;;4.5;4.4;;;;;;;-2.2;100.0;98960;;;;
2023/01/18 02:24:00;;;;;;;4.5;4.4;;;;;;;-2.2;100.0;98960;;;;
2023/01/18 02:25:03;;;;;;;4.5;4.4;;;;;;;-2.2;100.0;98960;;;;
2023/01/18 02:26:08;;;;;;;4.5;4.4;;;;;;;-2.2;100.0;98960;;;;
2023/01/18 02:27:00;;;;;;;4.5;4.4;;;;;;;-2.2;100.0;98960;;;;
2023/01/18 02:28:01;;;;;;;4.5;4.4;;;;;;;-2.2;100.0;98960;;;;
2023/01/18 02:29:03;;;;;;;4.6;4.5;;;;;;;-2.2;100.0;98960;;;;
2023/01/18 02:30:10;;;;;;;4.6;4.5;;;;;;;-2.1;100.0;98970;;;;
2023/01/18 02:31:00;;;;;;;4.6;4.5;;;;;;;-2.1;100.0;98970;;;;
2023/01/18 02:32:10;;;;;;;4.6;4.5;;;;;;;-2.2;100.0;98970;;;;
2023/01/18 02:33:04;;;;;;;4.6;4.5;;;;;;;-2.3;100.0;98970;;;;
2023/01/18 02:34:12;;;;;;;4.6;4.5;;;;;;;-2.3;100.0;98970;;;;
2023/01/18 02:35:06;;;;;;;4.6;4.5;;;;;;;-2.3;100.0;98970;;;;
2023/01/18 02:36:02;;;;;;;4.6;4.5;;;;;;;-2.3;100.0;98970;;;;
2023/01/18 02:37:05;;;;;;;4.6;4.5;;;;;;;-2.3;100.0;98980;;;;
2023/01/18 02:38:05;;;;;;;4.6;4.5;;;;;;;-2.3;100.0;98980;;;;
2023/01/18 02:39:05;;;;;;;4.6;4.5;;;;;;;-2.3;100.0;98980;;;;
2023/01/18 02:40:06;;;;;;;4.6;4.5;;;;;;;-2.3;100.0;98980;;;;
2023/01/18 02:41:10;;;;;;;4.6;4.5;;;;;;;-2.2;100.0;98980;;;;
2023/01/18 02:47:02;;;;;;;4.6;4.5;;;;;;;-2.3;100.0;98990;;;;
2023/01/18 02:48:01;;;;;;;5.3;5.1;;;;;;;-2.3;100.0;98980;;;;
2023/01/18 02:49:02;;;;;;;5.3;5.1;;;;;;;-2.3;100.0;98980;;;;
2023/01/18 02:50:01;;;;;;;5.3;5.1;;;;;;;-2.3;100.0;98980;;;;
2023/01/18 02:51:00;;;;;;;5.3;5.1;;;;;;;-2.3;100.0;98980;;;;
2023/01/18 02:52:01;;;;;;;5.3;5.1;;;;;;;-2.3;100.0;98980;;;;
2023/01/18 02:53:00;;;;;;;5.3;5.1;;;;;;;-2.3;100.0;98980;;;;
2023/01/18 02:54:01;;;;;;;5.3;5.1;;;;;;;-2.3;100.0;98980;;;;
2023/01/18 02:55:00;;;;;;;5.3;5.1;;;;;;;-2.3;100.0;98980;;;;
2023/01/18 02:56:04;;;;;;;5.3;5.1;;;;;;;-2.3;100.0;98980;;;;
2023/01/18 02:57:02;;;;;;;5.3;5.1;;;;;;;-2.3;100.0;98980;;;;
2023/01/18 02:58:03;;;;;;;5.3;5.1;;;;;;;-2.3;100.0;98980;;;;
2023/01/18 02:59:05;;;;;;;5.3;5.1;;;;;;;-2.3;100.0;98980;;;;
2023/01/18 03:00:02;;;;;;;5.3;5.1;;;;;;;-2.3;100.0;98980;;;;
2023/01/18 03:01:03;;;;;;;5.3;5.1;;;;;;;-2.3;100.0;98980;;;;
2023/01/18 03:02:02;;;;;;;5.3;5.1;;;;;;;-2.3;100.0;98980;;;;
2023/01/18 03:03:01;;;;;;;5.3;5.1;;;;;;;-2.3;100.0;98980;;;;
2023/01/18 03:04:03;;;;;;;5.3;5.1;;;;;;;-2.3;100.0;98980;;;;
2023/01/18 03:05:02;;;;;;;5.3;5.1;;;;;;;-2.3;100.0;98980;;;;
2023/01/18 03:06:02;;;;;;;5.3;5.1;;;;;;;-2.3;100.0;98990;;;;
2023/01/18 03:07:02;;;;;;;5.3;5.1;;;;;;;-2.3;100.0;98990;;;;
2023/01/18 03:08:10;;;;;;;4.4;4.3;;;;;;;-2.4;100.0;98990;;;;
2023/01/18 03:09:01;;;;;;;4.4;4.3;;;;;;;-2.4;100.0;98990;;;;
2023/01/18 03:10:01;;;;;;;4.4;4.3;;;;;;;-2.4;100.0;98990;;;;
2023/01/18 03:11:05;;;;;;;4.4;4.3;;;;;;;-2.4;100.0;98980;;;;
2023/01/18 03:12:10;;;;;;;4.4;4.3;;;;;;;-2.4;100.0;98980;;;;
2023/01/18 03:13:08;;;;;;;4.4;4.3;;;;;;;-2.4;100.0;98990;;;;
2023/01/18 03:14:06;;;;;;;4.4;4.3;;;;;;;-2.4;100.0;98990;;;;
2023/01/18 03:15:11;;;;;;;4.4;4.3;;;;;;;-2.5;100.0;98990;;;;
2023/01/18 03:16:08;;;;;;;4.4;4.3;;;;;;;-2.5;100.0;98990;;;;
2023/01/18 03:17:10;;;;;;;4.4;4.3;;;;;;;-2.5;100.0;98990;;;;
2023/01/18 03:18:07;;;;;;;4.4;4.3;;;;;;;-2.5;100.0;98990;;;;
2023/01/18 03:19:04;;;;;;;4.4;4.3;;;;;;;-2.4;100.0;98990;;;;
2023/01/18 03:20:06;;;;;;;4.4;4.3;;;;;;;-2.4;100.0;98990;;;;
2023/01/18 03:21:01;;;;;;;4.4;4.3;;;;;;;-2.4;100.0;98990;;;;
2023/01/18 03:22:01;;;;;;;4.4;4.3;;;;;;;-2.5;100.0;98990;;;;
2023/01/18 03:24:03;;;;;;;4.4;4.3;;;;;;;-2.5;100.0;98990;;;;
2023/01/18 03:25:01;;;;;;;4.4;4.3;;;;;;;-2.5;100.0;98990;;;;
2023/01/18 03:26:02;;;;;;;4.4;4.3;;;;;;;-2.5;100.0;98990;;;;
2023/01/18 03:34:08;;;;;;;4.2;4.1;;;;;;;-2.5;100.0;99000;;;;
2023/01/18 03:35:06;;;;;;;4.2;4.1;;;;;;;-2.5;100.0;99000;;;;
2023/01/18 03:36:01;;;;;;;4.2;4.1;;;;;;;-2.5;100.0;99000;;;;
2023/01/18 03:37:03;;;;;;;4.2;4.1;;;;;;;-2.5;100.0;99000;;;;
2023/01/18 03:38:00;;;;;;;4.2;4.1;;;;;;;-2.6;100.0;99000;;;;
2023/01/18 03:39:02;;;;;;;4.2;4.1;;;;;;;-2.6;100.0;99000;;;;
2023/01/18 03:40:02;;;;;;;4.2;4.1;;;;;;;-2.6;100.0;99000;;;;
2023/01/18 03:41:00;;;;;;;4.2;4.1;;;;;;;-2.6;100.0;99000;;;;
2023/01/18 03:42:03;;;;;;;4.2;4.1;;;;;;;-2.6;100.0;99000;;;;
2023/01/18 03:43:10;;;;;;;4.2;4.1;;;;;;;-2.6;100.0;99000;;;;
2023/01/18 03:44:09;;;;;;;4.2;4.1;;;;;;;-2.6;100.0;99000;;;;
2023/01/18 03:45:03;;;;;;;4.2;4.1;;;;;;;-2.6;100.0;99000;;;;
2023/01/18 03:46:01;;;;;;;4.2;4.1;;;;;;;-2.6;100.0;99010;;;;
2023/01/18 03:47:02;;;;;;;4.2;4.1;;;;;;;-2.6;100.0;99010;;;;
2023/01/18 03:48:00;;;;;;;4.2;4.1;;;;;;;-2.6;100.0;99010;;;;
2023/01/18 03:49:00;;;;;;;4.2;4.1;;;;;;;-2.6;100.0;99010;;;;
2023/01/18 03:50:00;;;;;;;4.2;4.1;;;;;;;-2.6;100.0;99010;;;;
2023/01/18 03:51:08;;;;;;;4.2;4.1;;;;;;;-2.7;100.0;99010;;;;
2023/01/18 03:52:05;;;;;;;4.2;4.1;;;;;;;-2.7;100.0;99010;;;;
2023/01/18 03:53:02;;;;;;;4.2;4.1;;;;;;;-2.7;100.0;99010;;;;
2023/01/18 03:54:07;;;;;;;4.2;4.1;;;;;;;-2.6;100.0;99010;;;;
2023/01/18 03:55:04;;;;;;;4.2;4.1;;;;;;;-2.6;100.0;99010;;;;
2023/01/18 03:56:03;;;;;;;4.2;4.1;;;;;;;-2.6;100.0;99010;;;;
2023/01/18 03:57:06;;;;;;;4.2;4.1;;;;;;;-2.7;100.0;99020;;;;
2023/01/18 03:58:04;;;;;;;4.2;4.1;;;;;;;-2.7;100.0;99020;;;;
2023/01/18 03:59:02;;;;;;;4.2;4.1;;;;;;;-2.7;100.0;99020;;;;
2023/01/18 04:00:01;;;;;;;4.2;4.1;;;;;;;-2.7;100.0;99020;;;;
2023/01/18 04:01:02;;;;;;;4.2;4.1;;;;;;;-2.7;100.0;99020;;;;
2023/01/18 04:02:01;;;;;;;4.2;4.1;;;;;;;-2.7;100.0;99020;;;;
2023/01/18 04:03:01;;;;;;;4.2;4.1;;;;;;;-2.7;100.0;99020;;;;
2023/01/18 04:04:00;;;;;;;4.2;4.1;;;;;;;-2.7;100.0;99030;;;;
2023/01/18 04:05:03;;;;;;;4.2;4.1;;;;;;;-2.7;100.0;99030;;;;
2023/01/18 04:06:01;;;;;;;4.2;4.1;;;;;;;-2.8;100.0;99030;;;;
2023/01/18 04:07:00;;;;;;;4.2;4.1;;;;;;;-2.8;100.0;99030;;;;
2023/01/18 04:08:00;;;;;;;4.4;4.3;;;;;;;-2.8;100.0;99040;;;;
2023/01/18 04:09:00;;;;;;;4.4;4.3;;;;;;;-2.8;100.0;99040;;;;
2023/01/18 04:10:00;;;;;;;4.4;4.3;;;;;;;-2.8;100.0;99040;;;;
2023/01/18 04:11:00;;;;;;;4.4;4.3;;;;;;;-2.8;100.0;99040;;;;
2023/01/18 04:12:00;;;;;;;4.4;4.3;;;;;;;-2.7;100.0;99040;;;;
2023/01/18 04:13:01;;;;;;;4.4;4.3;;;;;;;-2.7;100.0;99040;;;;
2023/01/18 04:14:00;;;;;;;4.4;4.3;;;;;;;-2.8;100.0;99040;;;;
2023/01/18 04:15:00;;;;;;;4.4;4.3;;;;;;;-2.8;100.0;99040;;;;
2023/01/18 04:16:00;;;;;;;4.4;4.3;;;;;;;-2.7;100.0;99040;;;;
2023/01/18 04:17:00;;;;;;;4.4;4.3;;;;;;;-2.7;100.0;99040;;;;
2023/01/18 04:18:00;;;;;;;4.4;4.3;;;;;;;-2.8;100.0;99040;;;;
2023/01/18 04:19:00;;;;;;;4.4;4.3;;;;;;;-2.8;100.0;99040;;;;
2023/01/18 04:20:00;;;;;;;4.4;4.3;;;;;;;-2.8;100.0;99040;;;;
2023/01/18 04:21:00;;;;;;;4.4;4.3;;;;;;;-2.8;100.0;99040;;;;
2023/01/18 04:22:00;;;;;;;4.4;4.3;;;;;;;-2.7;100.0;99040;;;;
2023/01/18 04:23:01;;;;;;;4.4;4.3;;;;;;;-2.7;100.0;99040;;;;
2023/01/18 04:24:00;;;;;;;4.4;4.3;;;;;;;-2.7;100.0;99040;;;;
2023/01/18 04:25:00;;;;;;;4.4;4.3;;;;;;;-2.7;100.0;99040;;;;
2023/01/18 04:26:00;;;;;;;4.4;4.3;;;;;;;-2.8;100.0;99040;;;;
2023/01/18 04:27:00;;;;;;;4.4;4.3;;;;;;;-2.8;100.0;99040;;;;
2023/01/18 04:28:00;;;;;;;5.6;5.4;;;;;;;-2.8;100.0;99050;;;;
2023/01/18 04:29:00;;;;;;;5.6;5.4;;;;;;;-2.8;100.0;99050;;;;
2023/01/18 04:30:00;;;;;;;5.6;5.4;;;;;;;-2.7;100.0;99050;;;;
2023/01/18 04:31:00;;;;;;;5.6;5.4;;;;;;;-2.7;100.0;99050;;;;
2023/01/18 04:32:00;;;;;;;5.6;5.4;;;;;;;-2.8;100.0;99050;;;;
2023/01/18 04:33:01;;;;;;;5.6;5.4;;;;;;;-2.8;100.0;99050;;;;
2023/01/18 04:34:00;;;;;;;5.6;5.4;;;;;;;-2.8;100.0;99040;;;;
2023/01/18 04:35:00;;;;;;;5.6;5.4;;;;;;;-2.8;100.0;99040;;;;
2023/01/18 04:36:00;;;;;;;5.6;5.4;;;;;;;-2.8;100.0;99050;;;;
2023/01/18 04:37:00;;;;;;;5.6;5.4;;;;;;;-2.8;100.0;99050;;;;
2023/01/18 04:38:00;;;;;;;5.6;5.4;;;;;;;-2.8;100.0;99050;;;;
2023/01/18 04:39:00;;;;;;;5.6;5.4;;;;;;;-2.8;100.0;99050;;;;
2023/01/18 04:40:00;;;;;;;5.6;5.4;;;;;;;-2.8;100.0;99050;;;;
2023/01/18 04:41:04;;;;;;;5.6;5.4;;;;;;;-2.8;100.0;99050;;;;
2023/01/18 04:42:00;;;;;;;5.6;5.4;;;;;;;-2.8;100.0;99050;;;;
2023/01/18 04:43:01;;;;;;;5.6;5.4;;;;;;;-2.8;100.0;99050;;;;
2023/01/18 04:44:00;;;;;;;5.6;5.4;;;;;;;-2.8;100.0;99050;;;;
2023/01/18 04:45:00;;;;;;;5.6;5.4;;;;;;;-2.8;100.0;99050;;;;
2023/01/18 04:46:00;;;;;;;5.6;5.4;;;;;;;-2.8;100.0;99050;;;;
2023/01/18 04:47:00;;;;;;;5.6;5.4;;;;;;;-2.8;100.0;99050;;;;
2023/01/18 04:48:00;;;;;;;4.6;4.5;;;;;;;-2.8;100.0;99050;;;;
2023/01/18 04:49:00;;;;;;;4.6;4.5;;;;;;;-2.8;100.0;99050;;;;
2023/01/18 04:50:00;;;;;;;4.6;4.5;;;;;;;-2.8;100.0;99050;;;;
2023/01/18 04:51:00;;;;;;;4.6;4.5;;;;;;;-2.8;100.0;99050;;;;
2023/01/18 04:52:00;;;;;;;4.6;4.5;;;;;;;-2.8;100.0;99060;;;;
2023/01/18 04:53:01;;;;;;;4.6;4.5;;;;;;;-2.8;100.0;99060;;;;
2023/01/18 04:54:00;;;;;;;4.6;4.5;;;;;;;-2.8;100.0;99060;;;;
2023/01/18 04:55:00;;;;;;;4.6;4.5;;;;;;;-2.8;100.0;99060;;;;
2023/01/18 04:56:00;;;;;;;4.6;4.5;;;;;;;-2.8;100.0;99060;;;;
2023/01/18 04:57:00;;;;;;;4.6;4.5;;;;;;;-2.8;100.0;99060;;;;
2023/01/18 04:58:00;;;;;;;4.6;4.5;;;;;;;-2.8;100.0;99070;;;;
2023/01/18 04:59:00;;;;;;;4.6;4.5;;;;;;;-2.8;100.0;99070;;;;
2023/01/18 05:00:01;;;;;;;4.6;4.5;;;;;;;-2.9;100.0;99060;;;;
2023/01/18 05:01:01;;;;;;;4.6;4.5;;;;;;;-2.9;100.0;99060;;;;
2023/01/18 05:02:00;;;;;;;4.6;4.5;;;;;;;-2.9;100.0;99060;;;;
2023/01/18 05:03:01;;;;;;;4.6;4.5;;;;;;;-2.9;100.0;99060;;;;
2023/01/18 05:04:00;;;;;;;4.6;4.5;;;;;;;-2.8;100.0;99070;;;;
2023/01/18 05:05:00;;;;;;;4.6;4.5;;;;;;;-2.8;100.0;99070;;;;
2023/01/18 05:06:00;;;;;;;4.6;4.5;;;;;;;-2.9;100.0;99070;;;;
2023/01/18 05:07:01;;;;;;;4.6;4.5;;;;;;;-2.9;100.0;99070;;;;
2023/01/18 05:08:00;;;;;;;4.6;4.5;;;;;;;-2.9;100.0;99070;;;;
2023/01/18 05:09:00;;;;;;;4.6;4.5;;;;;;;-2.9;100.0;99070;;;;
2023/01/18 05:10:00;;;;;;;4.6;4.5;;;;;;;-2.9;100.0;99070;;;;
2023/01/18 05:11:01;;;;;;;4.6;4.5;;;;;;;-2.9;100.0;99070;;;;
2023/01/18 05:12:00;;;;;;;4.6;4.5;;;;;;;-2.9;100.0;99080;;;;
2023/01/18 05:13:01;;;;;;;4.6;4.5;;;;;;;-2.9;100.0;99080;;;;
2023/01/18 05:14:00;;;;;;;4.6;4.5;;;;;;;-2.9;100.0;99080;;;;
2023/01/18 05:15:00;;;;;;;4.6;4.5;;;;;;;-2.9;100.0;99080;;;;
2023/01/18 05:16:01;;;;;;;4.6;4.5;;;;;;;-2.9;100.0;99080;;;;
2023/01/18 05:17:00;;;;;;;4.6;4.5;;;;;;;-2.9;100.0;99080;;;;
2023/01/18 05:18:01;;;;;;;4.6;4.5;;;;;;;-2.9;100.0;99080;;;;
2023/01/18 05:19:00;;;;;;;4.6;4.5;;;;;;;-2.9;100.0;99080;;;;
2023/01/18 05:20:00;;;;;;;4.6;4.5;;;;;;;-2.9;100.0;99080;;;;
2023/01/18 05:21:00;;;;;;;4.6;4.5;;;;;;;-2.9;100.0;99080;;;;
2023/01/18 05:22:00;;;;;;;4.6;4.5;;;;;;;-2.9;100.0;99080;;;;
2023/01/18 05:23:09;;;;;;;4.6;4.5;;;;;;;-2.9;100.0;99080;;;;
2023/01/18 05:24:00;;;;;;;4.6;4.5;;;;;;;-2.9;100.0;99080;;;;
2023/01/18 05:25:00;;;;;;;4.6;4.5;;;;;;;-2.9;100.0;99080;;;;
2023/01/18 05:26:00;;;;;;;4.6;4.5;;;;;;;-3.0;100.0;99090;;;;
2023/01/18 05:27:00;;;;;;;4.6;4.5;;;;;;;-3.0;100.0;99090;;;;
2023/01/18 05:28:00;;;;;;;4.5;4.4;;;;;;;-2.9;100.0;99090;;;;
2023/01/18 05:29:00;;;;;;;4.5;4.4;;;;;;;-2.9;100.0;99090;;;;
2023/01/18 05:30:01;;;;;;;4.5;4.4;;;;;;;-2.9;100.0;99090;;;;
2023/01/18 05:31:00;;;;;;;4.5;4.4;;;;;;;-2.9;100.0;99090;;;;
2023/01/18 05:32:00;;;;;;;4.5;4.4;;;;;;;-3.0;100.0;99090;;;;
2023/01/18 05:33:01;;;;;;;4.5;4.4;;;;;;;-3.0;100.0;99090;;;;
2023/01/18 05:34:00;;;;;;;4.5;4.4;;;;;;;-2.9;100.0;99090;;;;
2023/01/18 05:35:01;;;;;;;4.5;4.4;;;;;;;-2.9;100.0;99090;;;;
2023/01/18 05:36:00;;;;;;;4.5;4.4;;;;;;;-2.9;100.0;99100;;;;
2023/01/18 05:37:00;;;;;;;4.5;4.4;;;;;;;-2.9;100.0;99100;;;;
2023/01/18 05:38:00;;;;;;;4.5;4.4;;;;;;;-2.9;100.0;99090;;;;
2023/01/18 05:39:00;;;;;;;4.5;4.4;;;;;;;-2.9;100.0;99090;;;;
2023/01/18 05:40:00;;;;;;;4.5;4.4;;;;;;;-3.0;100.0;99100;;;;
2023/01/18 05:41:00;;;;;;;4.5;4.4;;;;;;;-3.0;100.0;99100;;;;
2023/01/18 05:42:00;;;;;;;4.5;4.4;;;;;;;-3.0;100.0;99100;;;;
2023/01/18 05:43:01;;;;;;;4.5;4.4;;;;;;;-3.0;100.0;99100;;;;
2023/01/18 05:44:00;;;;;;;4.5;4.4;;;;;;;-3.0;100.0;99100;;;;
2023/01/18 05:45:00;;;;;;;4.5;4.4;;;;;;;-3.0;100.0;99100;;;;
2023/01/18 05:46:00;;;;;;;4.5;4.4;;;;;;;-3.0;100.0;99100;;;;
2023/01/18 05:47:00;;;;;;;4.5;4.4;;;;;;;-3.0;100.0;99100;;;;
2023/01/18 05:48:00;;;;;;;4.9;4.8;;;;;;;-3.0;100.0;99110;;;;
2023/01/18 05:49:00;;;;;;;4.9;4.8;;;;;;;-3.0;100.0;99110;;;;
2023/01/18 05:50:00;;;;;;;4.9;4.8;;;;;;;-2.9;100.0;99110;;;;
2023/01/18 05:51:04;;;;;;;4.9;4.8;;;;;;;-2.9;100.0;99100;;;;
2023/01/18 05:52:00;;;;;;;4.9;4.8;;;;;;;-2.9;100.0;99100;;;;
2023/01/18 05:53:01;;;;;;;4.9;4.8;;;;;;;-2.9;100.0;99100;;;;
2023/01/18 05:54:00;;;;;;;4.9;4.8;;;;;;;-2.9;100.0;99100;;;;
2023/01/18 05:55:00;;;;;;;4.9;4.8;;;;;;;-2.9;100.0;99100;;;;
2023/01/18 05:56:02;;;;;;;4.9;4.8;;;;;;;-2.9;100.0;99110;;;;
2023/01/18 05:57:00;;;;;;;4.9;4.8;;;;;;;-2.9;100.0;99110;;;;
2023/01/18 05:58:00;;;;;;;4.9;4.8;;;;;;;-3.0;100.0;99110;;;;
2023/01/18 05:59:00;;;;;;;4.9;4.8;;;;;;;-3.0;100.0;99110;;;;
2023/01/18 06:00:01;;;;;;;4.9;4.8;;;;;;;-2.9;100.0;99120;;;;
2023/01/18 06:01:00;;;;;;;4.9;4.8;;;;;;;-2.9;100.0;99120;;;;
2023/01/18 06:02:00;;;;;;;4.9;4.8;;;;;;;-3.0;100.0;99130;;;;
2023/01/18 06:03:01;;;;;;;4.9;4.8;;;;;;;-3.0;100.0;99130;;;;
2023/01/18 06:04:00;;;;;;;4.9;4.8;;;;;;;-3.0;100.0;99130;;;;
2023/01/18 06:05:00;;;;;;;4.9;4.8;;;;;;;-3.0;100.0;99130;;;;
2023/01/18 06:06:00;;;;;;;4.9;4.8;;;;;;;-3.0;100.0;99130;;;;
2023/01/18 06:07:00;;;;;;;4.4;4.3;;;;;;;-3.0;100.0;99130;;;;
2023/01/18 06:08:01;;;;;;;4.4;4.3;;;;;;;-3.0;100.0;99130;;;;
2023/01/18 06:09:00;;;;;;;4.4;4.3;;;;;;;-3.0;100.0;99130;;;;
2023/01/18 06:10:00;;;;;;;4.4;4.3;;;;;;;-3.0;100.0;99140;;;;
2023/01/18 06:11:00;;;;;;;4.4;4.3;;;;;;;-3.0;100.0;99140;;;;
2023/01/18 06:12:00;;;;;;;4.4;4.3;;;;;;;-2.9;100.0;99140;;;;
2023/01/18 06:13:01;;;;;;;4.4;4.3;;;;;;;-2.9;100.0;99140;;;;
2023/01/18 06:14:00;;;;;;;4.4;4.3;;;;;;;-3.0;100.0;99140;;;;
2023/01/18 06:15:00;;;;;;;4.4;4.3;;;;;;;-3.0;100.0;99140;;;;
2023/01/18 06:16:00;;;;;;;4.4;4.3;;;;;;;-2.9;100.0;99140;;;;
2023/01/18 06:17:00;;;;;;;4.4;4.3;;;;;;;-2.9;100.0;99140;;;;
2023/01/18 06:18:00;;;;;;;4.4;4.3;;;;;;;-3.0;100.0;99150;;;;
2023/01/18 06:19:00;;;;;;;4.4;4.3;;;;;;;-3.0;100.0;99150;;;;
2023/01/18 06:20:01;;;;;;;4.4;4.3;;;;;;;-3.0;100.0;99150;;;;
2023/01/18 06:21:01;;;;;;;4.4;4.3;;;;;;;-3.0;100.0;99150;;;;
2023/01/18 06:22:00;;;;;;;4.4;4.3;;;;;;;-3.0;100.0;99150;;;;
2023/01/18 06:23:01;;;;;;;4.4;4.3;;;;;;;-3.0;100.0;99150;;;;
2023/01/18 06:24:00;;;;;;;4.4;4.3;;;;;;;-3.0;100.0;99150;;;;
2023/01/18 06:25:00;;;;;;;4.4;4.3;;;;;;;-3.0;100.0;99150;;;;
2023/01/18 06:26:00;;;;;;;4.4;4.3;;;;;;;-2.9;100.0;99160;;;;
2023/01/18 06:27:02;;;;;;;4.8;4.7;;;;;;;-2.9;100.0;99160;;;;
2023/01/18 06:28:01;;;;;;;4.8;4.7;;;;;;;-2.9;100.0;99160;;;;
2023/01/18 06:29:00;;;;;;;4.8;4.7;;;;;;;-2.9;100.0;99160;;;;
2023/01/18 06:30:00;;;;;;;4.8;4.7;;;;;;;-3.0;100.0;99160;;;;
2023/01/18 06:31:03;;;;;;;4.8;4.7;;;;;;;-3.0;100.0;99160;;;;
2023/01/18 06:32:00;;;;;;;4.8;4.7;;;;;;;-3.0;100.0;99160;;;;
2023/01/18 06:33:05;;;;;;;4.8;4.7;;;;;;;-3.0;100.0;99160;;;;
2023/01/18 06:34:07;;;;;;;4.8;4.7;;;;;;;-3.0;100.0;99160;;;;
2023/01/18 06:35:00;;;;;;;4.8;4.7;;;;;;;-3.0;100.0;99160;;;;
2023/01/18 06:36:00;;;;;;;4.8;4.7;;;;;;;-3.0;100.0;99170;;;;
2023/01/18 06:37:00;;;;;;;4.8;4.7;;;;;;;-3.0;100.0;99170;;;;
2023/01/18 06:38:01;;;;;;;4.8;4.7;;;;;;;-3.0;100.0;99170;;;;
2023/01/18 06:39:00;;;;;;;4.8;4.7;;;;;;;-3.0;100.0;99170;;;;
2023/01/18 06:40:02;;;;;;;4.8;4.7;;;;;;;-3.0;100.0;99170;;;;
2023/01/18 06:41:00;;;;;;;4.8;4.7;;;;;;;-3.0;100.0;99170;;;;
2023/01/18 06:42:00;;;;;;;4.8;4.7;;;;;;;-3.1;100.0;99170;;;;
2023/01/18 06:43:01;;;;;;;4.8;4.7;;;;;;;-3.1;100.0;99170;;;;
2023/01/18 06:44:00;;;;;;;4.8;4.7;;;;;;;-3.0;100.0;99180;;;;
2023/01/18 06:45:00;;;;;;;4.8;4.7;;;;;;;-3.0;100.0;99180;;;;
2023/01/18 06:46:01;;;;;;;4.8;4.7;;;;;;;-3.0;100.0;99170;;;;
2023/01/18 06:47:00;;;;;;;4.3;4.2;;;;;;;-3.0;100.0;99170;;;;
2023/01/18 06:48:00;;;;;;;4.3;4.2;;;;;;;-3.0;100.0;99180;;;;
2023/01/18 06:49:00;;;;;;;4.3;4.2;;;;;;;-3.0;100.0;99180;;;;
2023/01/18 06:50:00;;;;;;;4.3;4.2;;;;;;;-3.0;100.0;99180;;;;
2023/01/18 06:51:00;;;;;;;4.3;4.2;;;;;;;-3.0;100.0;99180;;;;
2023/01/18 06:52:00;;;;;;;4.3;4.2;;;;;;;-3.0;100.0;99190;;;;
2023/01/18 06:53:01;;;;;;;4.3;4.2;;;;;;;-3.0;100.0;99190;;;;
2023/01/18 06:54:00;;;;;;;4.3;4.2;;;;;;;-3.1;100.0;99190;;;;
2023/01/18 06:55:00;;;;;;;4.3;4.2;;;;;;;-3.1;100.0;99190;;;;
2023/01/18 06:56:00;;;;;;;4.3;4.2;;;;;;;-2.9;100.0;99190;;;;
2023/01/18 06:57:00;;;;;;;4.3;4.2;;;;;;;-2.9;100.0;99190;;;;
2023/01/18 06:58:01;;;;;;;4.3;4.2;;;;;;;-3.0;100.0;99190;;;;
2023/01/18 06:59:00;;;;;;;4.3;4.2;;;;;;;-3.0;100.0;99190;;;;
2023/01/18 07:00:04;;;;;;;4.3;4.2;;;;;;;-3.0;100.0;99190;;;;
2023/01/18 07:01:00;;;;;;;4.3;4.2;;;;;;;-3.0;100.0;99190;;;;